Time;durP1;ratioP1;P1;durP2;ratioP2;P2;SDS_P1;SDS_P2;PMS_P1;PMS_P2;Temp;Humidity;BMP_temperature;BMP_pressure;BME280_temperature;BME280_humidity;BME280_pressure;Samples;Min_cycle;Max_cycle;Signal;HPM_P1;HPM_P2
2023/04/25 00:00:55;;;;;;;;;5.50;2.25;;;;;10.82;73.39;100443.19;5074897;28;46109;-75
2023/04/25 00:03:21;;;;;;;;;3.50;3.00;;;;;10.80;73.62;100437.22;5075089;27;45702;-76
2023/04/25 00:05:46;;;;;;;;;5.00;5.00;;;;;10.79;73.56;100446.88;5075308;27;45564;-78
2023/04/25 00:08:12;;;;;;;;;7.00;6.50;;;;;10.78;73.68;100441.75;5074971;28;46621;-77
2023/04/25 00:10:37;;;;;;;;;5.25;3.00;;;;;10.82;74.02;100437.94;5074900;28;46044;-78
2023/04/25 00:13:02;;;;;;;;;4.25;3.50;;;;;10.84;74.28;100431.66;5074804;27;45540;-77
2023/04/25 00:15:30;;;;;;;;;5.25;3.00;;;;;10.91;74.05;100429.38;5075135;27;45587;-77
2023/04/25 00:17:56;;;;;;;;;4.50;3.00;;;;;10.94;74.06;100434.41;5074818;27;46425;-77
2023/04/25 00:20:23;;;;;;;;;6.00;4.00;;;;;10.92;74.07;100431.91;5074882;27;46629;-78
2023/04/25 00:22:49;;;;;;;;;5.75;3.00;;;;;10.91;73.96;100430.22;5074612;27;45652;-77
2023/04/25 00:28:36;;;;;;;;;3.00;3.00;;;;;10.83;73.89;100427.34;5074238;28;45548;-78
2023/04/25 00:31:01;;;;;;;;;3.25;3.00;;;;;10.84;74.11;100430.81;5074679;28;45636;-77
2023/04/25 00:33:27;;;;;;;;;4.50;3.50;;;;;10.87;74.25;100428.78;5074588;28;45663;-77
2023/04/25 00:35:52;;;;;;;;;5.00;5.00;;;;;10.86;73.90;100436.75;5074811;28;45576;-79
2023/04/25 00:38:18;;;;;;;;;5.50;4.75;;;;;10.83;73.50;100435.22;5074597;27;45423;-78
2023/04/25 00:44:07;;;;;;;;;3.75;3.00;;;;;10.78;73.27;100432.09;5074196;28;45491;-78
2023/04/25 00:46:33;;;;;;;;;4.25;3.25;;;;;10.72;73.60;100439.59;5072884;28;46015;-78
2023/04/25 00:48:58;;;;;;;;;9.75;6.00;;;;;10.66;73.77;100437.41;5074356;27;45615;-78
2023/04/25 00:51:26;;;;;;;;;3.75;3.00;;;;;10.63;73.67;100435.88;5074559;27;45687;-78
2023/04/25 00:53:53;;;;;;;;;4.25;4.25;;;;;10.57;73.74;100431.09;5074203;27;45826;-78
2023/04/25 00:56:20;;;;;;;;;3.25;3.00;;;;;10.53;73.53;100433.06;5074510;27;45713;-78
2023/04/25 00:58:45;;;;;;;;;5.00;3.00;;;;;10.48;73.52;100436.97;5074186;28;46567;-75
2023/04/25 01:01:12;;;;;;;;;5.00;3.00;;;;;10.47;73.74;100451.03;5074015;27;45557;-78
2023/04/25 01:03:42;;;;;;;;;4.50;4.50;;;;;10.40;73.88;100434.09;5074260;27;45490;-77
2023/04/25 01:06:09;;;;;;;;;8.25;5.00;;;;;10.36;74.37;100432.66;5073657;28;45768;-79
2023/04/25 01:08:35;;;;;;;;;6.00;5.75;;;;;10.35;74.29;100447.53;5073983;27;46845;-79
2023/04/25 01:14:22;;;;;;;;;5.75;5.75;;;;;10.35;74.53;100438.84;5073903;28;45713;-78
2023/04/25 01:16:48;;;;;;;;;6.25;5.25;;;;;10.38;74.94;100434.19;5074111;28;45535;-77
2023/04/25 01:19:17;;;;;;;;;7.00;5.50;;;;;10.39;74.80;100433.25;5073772;27;46421;-77
2023/04/25 01:21:42;;;;;;;;;8.00;7.00;;;;;10.40;75.06;100429.69;5074078;27;45534;-77
2023/04/25 01:24:08;;;;;;;;;7.50;7.25;;;;;10.39;74.83;100414.94;5073781;28;45530;-77
2023/04/25 01:26:35;;;;;;;;;7.75;7.00;;;;;10.39;75.08;100427.19;5073932;28;45654;-75
2023/04/25 01:29:01;;;;;;;;;8.25;6.75;;;;;10.40;75.26;100419.22;5073750;27;46540;-76
2023/04/25 01:31:28;;;;;;;;;7.50;6.50;;;;;10.41;74.73;100420.91;5073791;27;45752;-76
2023/04/25 01:33:53;;;;;;;;;7.75;6.75;;;;;10.32;74.74;100425.94;5073742;27;45836;-77
2023/04/25 01:36:18;;;;;;;;;7.75;6.00;;;;;10.29;74.88;100428.81;5073726;27;45912;-77
2023/04/25 01:38:46;;;;;;;;;10.25;8.00;;;;;10.28;75.25;100434.97;5073660;28;46586;-77
2023/04/25 01:44:33;;;;;;;;;7.00;7.00;;;;;10.20;75.17;100429.47;5073565;28;45886;-77
2023/04/25 01:46:58;;;;;;;;;8.50;6.00;;;;;10.21;75.11;100428.50;5073725;27;45880;-76
2023/04/25 01:49:24;;;;;;;;;8.00;5.75;;;;;10.20;75.03;100419.00;5073552;27;45546;-76
2023/04/25 01:51:49;;;;;;;;;9.00;5.00;;;;;10.20;75.04;100424.25;5073518;27;45604;-79
2023/04/25 01:54:15;;;;;;;;;7.50;7.25;;;;;10.19;75.24;100430.41;5073646;28;45525;-76
2023/04/25 01:56:40;;;;;;;;;6.75;6.25;;;;;10.16;75.35;100423.63;5073433;27;45834;-75
2023/04/25 01:59:06;;;;;;;;;5.25;5.25;;;;;10.14;75.29;100425.50;5073318;27;45536;-77
2023/04/25 02:01:32;;;;;;;;;7.50;7.50;;;;;10.17;74.96;100420.06;5073078;27;45599;-77
2023/04/25 02:03:58;;;;;;;;;8.75;7.00;;;;;10.20;75.26;100426.88;5073399;27;45450;-76
2023/04/25 02:06:23;;;;;;;;;8.00;6.00;;;;;10.19;75.16;100439.13;5073510;27;45685;-78
2023/04/25 02:08:48;;;;;;;;;6.00;6.00;;;;;10.17;75.20;100427.91;5073339;28;45642;-78
2023/04/25 02:14:35;;;;;;;;;7.50;7.50;;;;;10.10;74.87;100444.97;5072988;28;45581;-76
2023/04/25 02:17:00;;;;;;;;;5.25;5.00;;;;;10.09;75.28;100438.88;5075990;27;45507;-77
2023/04/25 02:19:26;;;;;;;;;7.75;6.75;;;;;10.07;75.32;100434.72;5076605;27;46752;-75
2023/04/25 02:21:51;;;;;;;;;8.25;6.75;;;;;10.05;75.22;100441.84;5076557;27;45612;-75
2023/04/25 02:24:17;;;;;;;;;7.00;5.00;;;;;10.02;75.15;100431.59;5076774;27;45685;-78
2023/04/25 02:30:06;;;;;;;;;5.50;5.50;;;;;10.12;75.04;100445.69;5076312;28;45524;-77
2023/04/25 02:32:32;;;;;;;;;7.75;6.00;;;;;10.07;75.20;100442.56;5076321;28;46033;-74
2023/04/25 02:35:02;;;;;;;;;10.75;7.00;;;;;10.03;75.45;100438.50;5076190;27;45494;-77
2023/04/25 02:37:27;;;;;;;;;7.00;7.00;;;;;10.02;75.14;100449.91;5076516;27;45588;-78
2023/04/25 02:39:53;;;;;;;;;10.00;7.00;;;;;9.97;75.41;100439.78;5076336;27;46602;-75
2023/04/25 02:42:18;;;;;;;;;7.50;6.75;;;;;9.96;75.46;100440.72;5076342;27;45811;-77
2023/04/25 02:44:43;;;;;;;;;6.00;5.75;;;;;9.94;75.62;100447.84;5076442;27;45550;-77
2023/04/25 02:47:09;;;;;;;;;7.75;6.00;;;;;9.87;75.53;100446.63;5076451;27;45778;-77
2023/04/25 02:49:34;;;;;;;;;2.75;2.75;;;;;9.81;75.79;100448.81;5076079;27;45480;-75
2023/04/25 02:51:59;;;;;;;;;7.00;6.00;;;;;9.83;75.90;100446.91;5074986;28;45769;-76
2023/04/25 02:54:25;;;;;;;;;12.75;10.25;;;;;9.77;75.87;100466.50;5076232;27;45672;-76
2023/04/25 03:00:14;;;;;;;;;8.50;6.00;;;;;9.74;76.00;100463.28;5075681;28;45895;-76
2023/04/25 03:02:40;;;;;;;;;6.00;6.00;;;;;9.67;76.36;100460.25;5075809;27;46031;-76
2023/04/25 03:05:05;;;;;;;;;6.75;6.75;;;;;9.65;76.48;100454.28;5075915;27;45438;-79
2023/04/25 03:07:31;;;;;;;;;10.00;7.00;;;;;9.63;76.76;100448.31;5076078;28;45649;-75
2023/04/25 03:09:56;;;;;;;;;10.25;10.00;;;;;9.64;76.75;100440.38;5075920;28;45441;-75
2023/04/25 03:12:22;;;;;;;;;9.75;8.25;;;;;9.66;76.62;100448.13;5075746;27;45607;-76
2023/04/25 03:14:47;;;;;;;;;10.50;6.50;;;;;9.66;76.49;100448.13;5075730;27;45629;-78
2023/04/25 03:17:12;;;;;;;;;10.75;8.75;;;;;9.61;76.57;100439.75;5075925;27;45851;-78
2023/04/25 03:19:38;;;;;;;;;6.25;6.25;;;;;9.57;76.21;100446.97;5075740;27;45470;-78
2023/04/25 03:22:03;;;;;;;;;9.75;9.25;;;;;9.51;76.64;100457.84;5075695;27;45873;-76
2023/04/25 03:24:29;;;;;;;;;10.25;8.25;;;;;9.46;76.79;100451.28;5075676;27;45728;-78
2023/04/25 03:30:16;;;;;;;;;9.75;6.75;;;;;9.41;77.22;100451.59;5075324;28;45580;-78
2023/04/25 03:32:41;;;;;;;;;11.75;9.00;;;;;9.41;77.25;100458.59;5075474;27;45642;-77
2023/04/25 03:35:07;;;;;;;;;8.00;6.75;;;;;9.40;76.87;100444.69;5075451;27;45883;-77
2023/04/25 03:37:32;;;;;;;;;10.75;7.50;;;;;9.40;77.22;100454.31;5075500;27;45745;-77
2023/04/25 03:39:58;;;;;;;;;9.50;8.00;;;;;9.39;77.28;100450.88;5075560;27;46308;-76
2023/04/25 03:45:45;;;;;;;;;10.25;6.50;;;;;9.42;77.23;100448.03;5075269;28;45619;-79
2023/04/25 03:48:11;;;;;;;;;10.00;9.75;;;;;9.35;77.33;100444.16;5075473;27;45533;-78
2023/04/25 03:50:36;;;;;;;;;10.00;7.75;;;;;9.38;77.24;100448.34;5075218;28;46607;-77
2023/04/25 03:53:02;;;;;;;;;14.25;10.25;;;;;9.33;77.25;100448.69;5075111;27;45631;-78
2023/04/25 03:55:27;;;;;;;;;7.00;6.25;;;;;9.32;77.74;100449.63;5075133;27;45757;-77
2023/04/25 03:57:52;;;;;;;;;9.25;7.00;;;;;9.31;77.83;100449.72;5075245;27;45490;-77
2023/04/25 04:00:18;;;;;;;;;10.25;9.00;;;;;9.35;77.39;100454.63;5074890;27;46559;-77
2023/04/25 04:02:43;;;;;;;;;14.50;11.50;;;;;9.33;77.68;100453.91;5074964;27;46135;-77
2023/04/25 04:05:09;;;;;;;;;13.00;9.75;;;;;9.39;77.59;100450.88;5074893;27;45699;-77
2023/04/25 04:07:39;;;;;;;;;11.50;9.25;;;;;9.39;77.65;100448.25;5075034;27;45538;-76
2023/04/25 04:10:08;;;;;;;;;13.25;10.25;;;;;9.35;77.58;100454.63;5074820;27;45482;-77
2023/04/25 04:15:56;;;;;;;;;6.75;6.50;;;;;9.41;77.33;100461.22;5074517;28;45464;-74
2023/04/25 04:18:21;;;;;;;;;6.50;5.25;;;;;9.39;77.40;100460.50;5075160;28;45533;-76
2023/04/25 04:20:47;;;;;;;;;10.00;9.25;;;;;9.40;77.55;100457.75;5074671;27;45499;-78
2023/04/25 04:23:13;;;;;;;;;10.75;9.00;;;;;9.37;77.61;100465.81;5074502;27;45611;-77
2023/04/25 04:25:40;;;;;;;;;10.75;10.00;;;;;9.38;77.80;100474.50;5074593;27;45751;-78
2023/04/25 04:28:05;;;;;;;;;10.75;9.00;;;;;9.39;77.74;100477.03;5074697;27;45778;-77
2023/04/25 04:30:33;;;;;;;;;7.75;7.25;;;;;9.39;77.76;100471.78;5074576;27;46285;-78
2023/04/25 04:32:58;;;;;;;;;10.25;7.75;;;;;9.41;78.01;100480.34;5074501;27;45986;-77
2023/04/25 04:35:24;;;;;;;;;12.25;9.75;;;;;9.46;77.84;100487.88;5074472;28;45719;-77
2023/04/25 04:37:50;;;;;;;;;13.50;10.00;;;;;9.47;77.67;100485.16;5074550;28;45767;-77
2023/04/25 04:40:17;;;;;;;;;8.00;6.00;;;;;9.53;77.53;100489.97;5073470;28;45503;-77
2023/04/25 04:46:04;;;;;;;;;11.00;10.25;;;;;9.53;77.72;100494.38;5074270;28;45915;-77
2023/04/25 04:48:34;;;;;;;;;11.00;9.50;;;;;9.53;77.43;100508.28;5074532;28;45487;-74
2023/04/25 04:51:00;;;;;;;;;11.00;10.25;;;;;9.50;77.31;100500.63;5074447;27;45737;-76
2023/04/25 04:53:26;;;;;;;;;12.75;11.25;;;;;9.48;77.61;100499.91;5074147;27;46621;-75
2023/04/25 04:55:52;;;;;;;;;10.00;10.00;;;;;9.50;77.67;100499.81;5074318;27;45729;-77
2023/04/25 05:01:39;;;;;;;;;10.75;10.50;;;;;9.54;77.89;100512.56;5064243;28;45702;-75
2023/04/25 05:04:05;;;;;;;;;9.50;8.50;;;;;9.56;77.73;100526.38;5074123;27;45616;-76
2023/04/25 05:06:31;;;;;;;;;10.25;9.00;;;;;9.51;77.67;100518.00;5072447;28;45865;-77
2023/04/25 05:08:57;;;;;;;;;10.25;10.25;;;;;9.56;77.60;100531.59;5074090;27;45755;-77
2023/04/25 05:11:23;;;;;;;;;10.75;10.75;;;;;9.56;77.64;100530.75;5073857;28;47063;-75
2023/04/25 05:13:50;;;;;;;;;10.25;6.00;;;;;9.55;77.34;100531.72;5073922;27;46009;-78
2023/04/25 05:16:16;;;;;;;;;11.00;10.50;;;;;9.48;77.47;100533.91;5073925;27;45889;-76
2023/04/25 05:18:42;;;;;;;;;11.25;8.75;;;;;9.44;77.61;100534.22;5074044;27;45606;-75
2023/04/25 05:21:07;;;;;;;;;14.75;14.00;;;;;9.43;77.74;100546.47;5073844;28;45579;-77
2023/04/25 05:23:33;;;;;;;;;14.75;11.00;;;;;9.40;77.61;100551.03;5073665;27;45635;-77
2023/04/25 05:25:58;;;;;;;;;13.75;10.75;;;;;9.47;77.84;100557.53;5073620;27;45608;-77
2023/04/25 05:31:45;;;;;;;;;15.00;12.50;;;;;9.52;77.64;100558.91;5073552;28;45676;-77
2023/04/25 05:34:10;;;;;;;;;14.25;10.25;;;;;9.53;77.93;100560.59;5073616;27;45414;-78
2023/04/25 05:36:36;;;;;;;;;15.50;11.50;;;;;9.59;77.85;100570.63;5073660;27;45573;-77
2023/04/25 05:39:03;;;;;;;;;16.75;11.50;;;;;9.60;78.03;100579.31;5072226;28;45827;-77
2023/04/25 05:41:28;;;;;;;;;12.00;11.50;;;;;9.64;77.78;100586.00;5088982;27;46145;-78
2023/04/25 05:43:54;;;;;;;;;12.00;11.75;;;;;9.58;77.61;100589.88;5073928;27;45793;-77
2023/04/25 05:46:19;;;;;;;;;21.50;18.25;;;;;9.60;77.55;100597.63;5073595;27;45663;-77
2023/04/25 05:48:45;;;;;;;;;14.75;13.50;;;;;9.58;77.88;100600.34;5073785;27;45517;-80
2023/04/25 05:51:10;;;;;;;;;11.50;10.75;;;;;9.57;77.76;100596.03;5075088;27;46421;-77
2023/04/25 05:53:35;;;;;;;;;20.50;14.50;;;;;9.62;77.73;100608.81;5077208;27;45953;-77
2023/04/25 05:56:01;;;;;;;;;16.00;13.25;;;;;9.60;77.68;100611.56;5076918;27;45548;-74
2023/04/25 06:01:48;;;;;;;;;17.25;15.00;;;;;9.55;78.43;100612.78;5074857;28;46042;-76
2023/04/25 06:04:14;;;;;;;;;17.00;14.25;;;;;9.58;78.17;100623.88;5076850;27;45996;-74
2023/04/25 06:06:39;;;;;;;;;14.75;11.75;;;;;9.61;78.34;100621.06;5076872;27;45627;-77
2023/04/25 06:09:05;;;;;;;;;20.25;15.00;;;;;9.66;78.19;100628.63;5076973;27;45615;-79
2023/04/25 06:11:30;;;;;;;;;17.00;13.50;;;;;9.69;78.18;100621.38;5076686;27;45601;-77
2023/04/25 06:17:17;;;;;;;;;20.00;14.25;;;;;9.72;78.21;100633.41;5076401;28;45485;-76
2023/04/25 06:19:42;;;;;;;;;16.75;15.00;;;;;9.70;78.12;100635.31;5075332;28;45988;-77
2023/04/25 06:22:08;;;;;;;;;12.50;12.00;;;;;9.75;78.10;100635.00;5076373;27;45468;-77
2023/04/25 06:24:34;;;;;;;;;16.50;15.25;;;;;9.72;78.11;100625.56;5076470;27;45621;-75
2023/04/25 06:27:00;;;;;;;;;17.25;13.25;;;;;9.76;78.21;100627.06;5076411;27;45686;-76
2023/04/25 06:29:25;;;;;;;;;15.00;13.25;;;;;9.81;77.89;100627.56;5076814;27;45622;-74
2023/04/25 06:31:51;;;;;;;;;15.00;12.75;;;;;9.79;77.54;100629.44;5076455;27;45707;-75
2023/04/25 06:34:17;;;;;;;;;14.00;13.00;;;;;9.82;77.95;100631.88;5076281;27;46111;-77
2023/04/25 06:36:43;;;;;;;;;13.00;12.00;;;;;9.84;78.00;100632.59;5076539;27;45628;-76
2023/04/25 06:39:09;;;;;;;;;17.00;14.50;;;;;9.86;77.63;100630.72;5076611;27;45630;-77
2023/04/25 06:41:35;;;;;;;;;12.50;11.25;;;;;9.93;77.40;100631.97;5076399;27;45630;-77
2023/04/25 06:47:22;;;;;;;;;13.25;11.50;;;;;10.08;77.23;100632.72;5076203;28;45616;-77
2023/04/25 06:49:47;;;;;;;;;8.00;7.00;;;;;10.14;76.86;100637.53;5077012;27;45692;-78
2023/04/25 06:52:13;;;;;;;;;9.00;8.00;;;;;10.19;76.58;100639.88;5076231;28;45619;-77
2023/04/25 06:54:38;;;;;;;;;7.25;7.25;;;;;10.24;76.21;100643.84;5076415;27;46309;-78
2023/04/25 06:57:04;;;;;;;;;7.75;7.25;;;;;10.29;75.97;100661.84;5076157;27;45700;-78
2023/04/25 07:02:51;;;;;;;;;6.00;5.25;;;;;10.31;75.37;100667.81;5064036;28;45713;-78
2023/04/25 07:05:16;;;;;;;;;9.50;7.50;;;;;10.29;75.47;100667.91;5091344;27;46360;-79
2023/04/25 07:07:42;;;;;;;;;12.75;8.00;;;;;10.31;75.38;100694.00;5076072;27;45597;-75
2023/04/25 07:10:07;;;;;;;;;12.50;9.25;;;;;10.29;75.51;100669.69;5076132;27;45855;-78
2023/04/25 07:12:33;;;;;;;;;12.00;8.75;;;;;10.29;75.58;100669.69;5075582;27;46284;-77
2023/04/25 07:14:58;;;;;;;;;10.50;10.00;;;;;10.30;75.86;100666.16;5075667;28;46032;-76
2023/04/25 07:17:24;;;;;;;;;12.75;12.25;;;;;10.36;75.27;100681.44;5075628;27;45593;-77
2023/04/25 07:19:49;;;;;;;;;15.00;14.50;;;;;10.40;74.95;100680.28;5076053;27;45453;-76
2023/04/25 07:22:14;;;;;;;;;16.75;13.50;;;;;10.35;74.94;100677.13;5075646;28;45645;-77
2023/04/25 07:24:40;;;;;;;;;16.00;13.00;;;;;10.33;74.98;100679.00;5075575;27;46169;-78
2023/04/25 07:27:06;;;;;;;;;17.00;12.75;;;;;10.29;74.76;100675.78;5075481;27;45758;-76
2023/04/25 07:32:53;;;;;;;;;16.50;12.75;;;;;10.27;74.94;100705.63;5075286;28;46021;-77
2023/04/25 07:35:18;;;;;;;;;21.00;17.50;;;;;10.26;74.71;100698.69;5075316;28;45795;-77
2023/04/25 07:37:44;;;;;;;;;19.00;15.25;;;;;10.27;74.89;100708.22;5075529;27;45576;-75
2023/04/25 07:40:10;;;;;;;;;24.25;21.00;;;;;10.27;74.95;100709.06;5075785;27;45809;-77
2023/04/25 07:42:35;;;;;;;;;16.75;15.75;;;;;10.24;74.48;100701.44;5075199;27;46373;-76
2023/04/25 07:45:02;;;;;;;;;18.25;17.50;;;;;10.23;74.73;100714.63;5075270;27;45563;-77
2023/04/25 07:47:28;;;;;;;;;22.50;19.25;;;;;10.25;74.25;100720.59;5075108;27;45972;-76
2023/04/25 07:49:53;;;;;;;;;21.50;19.25;;;;;10.19;74.21;100724.47;5075689;27;45528;-78
2023/04/25 07:52:18;;;;;;;;;21.50;18.75;;;;;10.17;74.09;100728.13;5075358;27;45548;-77
2023/04/25 07:54:44;;;;;;;;;22.50;19.25;;;;;10.18;73.41;100732.44;5075111;27;46286;-76
2023/04/25 07:57:10;;;;;;;;;14.50;13.50;;;;;10.17;73.48;100741.22;5075145;27;45679;-75
2023/04/25 08:02:57;;;;;;;;;16.75;15.25;;;;;10.16;73.51;100740.38;5073304;28;46169;-76
2023/04/25 08:05:22;;;;;;;;;20.50;16.25;;;;;10.22;73.69;100746.97;5074846;28;46102;-76
2023/04/25 08:07:48;;;;;;;;;13.50;12.50;;;;;10.29;73.21;100756.09;5073442;28;45658;-77
2023/04/25 08:10:13;;;;;;;;;21.75;16.75;;;;;10.35;72.37;100761.78;5075186;27;45550;-76
2023/04/25 08:12:39;;;;;;;;;17.25;14.00;;;;;10.41;72.32;100771.84;5090241;27;47634;-78
2023/04/25 08:18:26;;;;;;;;;14.75;12.00;;;;;10.55;71.73;100770.88;5074762;28;45555;-75
2023/04/25 08:20:52;;;;;;;;;21.00;17.00;;;;;10.61;71.60;100780.09;5075032;27;45668;-78
2023/04/25 08:23:17;;;;;;;;;12.00;11.50;;;;;10.65;71.83;100779.78;5074686;27;46276;-74
2023/04/25 08:25:43;;;;;;;;;20.00;17.50;;;;;10.68;71.48;100782.22;5074639;28;46155;-78
2023/04/25 08:28:09;;;;;;;;;18.25;14.75;;;;;10.68;71.34;100786.63;5074569;27;45882;-74
2023/04/25 08:30:35;;;;;;;;;18.00;14.25;;;;;10.67;71.50;100793.63;5074854;27;45588;-75
2023/04/25 08:33:00;;;;;;;;;20.75;15.75;;;;;10.63;71.01;100792.19;5074612;28;45889;-75
2023/04/25 08:35:25;;;;;;;;;15.75;12.75;;;;;10.63;71.44;100796.56;5074474;27;45703;-77
2023/04/25 08:37:51;;;;;;;;;15.50;11.75;;;;;10.63;71.12;100802.66;5074723;27;45677;-78
2023/04/25 08:40:17;;;;;;;;;14.25;11.75;;;;;10.59;71.21;100798.53;5074860;27;45828;-76
2023/04/25 08:42:42;;;;;;;;;13.50;13.00;;;;;10.59;70.94;100806.41;5074389;27;45702;-76
2023/04/25 08:48:32;;;;;;;;;16.00;14.50;;;;;10.52;71.33;100805.16;5074046;28;45773;-76
2023/04/25 08:50:58;;;;;;;;;15.00;11.75;;;;;10.53;71.73;100806.81;5074508;27;45548;-74
2023/04/25 08:53:32;;;;;;;;;15.75;12.00;;;;;10.51;71.45;100814.81;5074082;27;46734;-76
2023/04/25 08:55:59;;;;;;;;;12.25;10.25;;;;;10.52;71.26;100828.75;5074007;27;46062;-76
2023/04/25 08:58:25;;;;;;;;;14.25;12.00;;;;;10.49;71.27;100816.66;5089513;27;46046;-77
2023/04/25 09:00:51;;;;;;;;;18.00;13.75;;;;;10.51;71.46;100832.28;5074350;27;45616;-76
2023/04/25 09:03:17;;;;;;;;;13.25;12.00;;;;;10.53;71.32;100827.78;5072409;28;48786;-77
2023/04/25 09:05:42;;;;;;;;;6.50;6.50;;;;;10.57;70.88;100833.66;5073921;27;46410;-75
2023/04/25 09:08:08;;;;;;;;;16.50;12.50;;;;;10.62;70.84;100842.91;5073987;28;45545;-77
2023/04/25 09:10:34;;;;;;;;;15.25;12.75;;;;;10.71;70.95;100839.63;5072556;28;45838;-76
2023/04/25 09:13:06;;;;;;;;;14.50;13.25;;;;;10.78;70.82;100842.69;5073795;27;46457;-77
2023/04/25 09:18:53;;;;;;;;;15.00;13.50;;;;;10.96;70.04;100854.50;5073743;28;45709;-78
2023/04/25 09:21:22;;;;;;;;;13.00;12.00;;;;;11.03;70.09;100862.81;5073991;27;45797;-78
2023/04/25 09:23:48;;;;;;;;;12.50;11.00;;;;;11.06;69.60;100867.84;5073885;27;45540;-77
2023/04/25 09:26:18;;;;;;;;;17.00;12.50;;;;;11.06;69.61;100865.22;5072981;27;46107;-78
2023/04/25 09:28:45;;;;;;;;;14.50;11.75;;;;;11.08;69.50;100873.81;5073660;27;46072;-76
2023/04/25 09:31:11;;;;;;;;;16.75;12.25;;;;;11.05;69.42;100872.25;5073703;27;45598;-76
2023/04/25 09:33:37;;;;;;;;;11.50;10.50;;;;;11.05;69.28;100879.28;5073642;27;45561;-78
2023/04/25 09:36:04;;;;;;;;;13.75;9.25;;;;;11.05;68.93;100889.78;5073613;27;45652;-77
2023/04/25 09:38:41;;;;;;;;;9.75;6.00;;;;;10.99;68.61;100883.16;5073299;28;45663;-79
2023/04/25 09:41:07;;;;;;;;;9.50;8.50;;;;;11.05;69.01;100882.75;5073594;27;45777;-78
2023/04/25 09:43:32;;;;;;;;;12.25;11.50;;;;;11.16;68.60;100889.88;5073516;27;45616;-76
2023/04/25 09:49:22;;;;;;;;;17.75;11.25;;;;;11.30;68.03;100884.50;5073392;28;45829;-78
2023/04/25 09:51:58;;;;;;;;;14.50;12.00;;;;;11.32;67.95;100893.13;5072127;28;45703;-78
2023/04/25 09:54:26;;;;;;;;;9.75;7.00;;;;;11.30;67.87;100897.63;5073504;28;46525;-79
2023/04/25 09:56:53;;;;;;;;;8.00;7.50;;;;;11.27;67.87;100889.97;5071986;28;47306;-78
2023/04/25 09:59:22;;;;;;;;;10.00;8.75;;;;;11.28;67.90;100895.09;5073605;27;45966;-77
2023/04/25 10:01:52;;;;;;;;;13.00;10.50;;;;;11.29;68.03;100912.50;5073278;27;45604;-78
2023/04/25 10:04:25;;;;;;;;;8.50;8.25;;;;;11.35;67.86;100901.59;5073417;27;46448;-79
2023/04/25 10:06:53;;;;;;;;;11.00;8.75;;;;;11.40;67.73;100906.53;5073183;27;46288;-77
2023/04/25 10:09:21;;;;;;;;;8.75;7.00;;;;;11.49;67.51;100903.28;5073593;27;45644;-76
2023/04/25 10:11:50;;;;;;;;;11.75;9.00;;;;;11.57;66.99;100908.81;5076354;27;45774;-79
2023/04/25 10:14:16;;;;;;;;;9.00;7.25;;;;;11.60;66.75;100910.38;5076795;27;46713;-76
2023/04/25 10:16:41;;;;;;;;;9.00;8.00;;;;;11.65;66.17;100908.28;5078826;27;46031;-77
2023/04/25 10:19:07;;;;;;;;;7.50;6.75;;;;;11.68;66.15;100910.66;5073312;27;45473;-79
2023/04/25 10:21:36;;;;;;;;;10.50;8.00;;;;;11.71;65.68;100905.22;5073366;27;45540;-78
2023/04/25 10:24:02;;;;;;;;;10.75;8.50;;;;;11.74;65.83;100907.66;5073159;28;46625;-78
2023/04/25 10:26:29;;;;;;;;;13.25;9.00;;;;;11.78;65.53;100907.31;5073102;27;46129;-77
2023/04/25 10:28:59;;;;;;;;;8.50;8.50;;;;;11.84;65.55;100911.28;5073348;27;45687;-78
2023/04/25 10:34:49;;;;;;;;;10.00;9.00;;;;;11.89;65.23;100914.44;5072697;28;45581;-78
2023/04/25 10:37:15;;;;;;;;;7.25;6.50;;;;;11.92;65.31;100906.34;5071471;28;47388;-79
2023/04/25 10:39:42;;;;;;;;;10.00;8.75;;;;;11.98;65.31;100907.69;5076749;27;45849;-78
2023/04/25 10:42:07;;;;;;;;;9.25;8.25;;;;;12.06;65.49;100907.97;5077212;27;45826;-79
2023/04/25 10:44:34;;;;;;;;;12.50;12.00;;;;;12.17;65.28;100910.66;5091964;27;46249;-77
2023/04/25 10:47:02;;;;;;;;;9.75;9.50;;;;;12.24;64.66;100916.31;5076231;27;46300;-79
2023/04/25 10:49:35;;;;;;;;;7.75;7.50;;;;;12.27;64.40;100916.06;5076485;27;45856;-79
2023/04/25 10:52:27;;;;;;;;;7.00;7.00;;;;;12.27;63.64;100909.03;5076360;28;45533;-77
2023/04/25 10:54:55;;;;;;;;;7.00;5.25;;;;;12.28;63.90;100925.63;5076077;27;45682;-79
2023/04/25 10:57:39;;;;;;;;;7.00;7.00;;;;;12.26;63.31;100924.88;5074540;28;47465;-78
2023/04/25 11:00:14;;;;;;;;;7.00;4.00;;;;;12.23;63.76;100927.75;5075976;27;45735;-79
2023/04/25 11:02:58;;;;;;;;;8.25;6.00;;;;;12.18;63.20;100921.06;5075564;27;45873;-79
2023/04/25 11:05:45;;;;;;;;;8.25;7.75;;;;;12.18;63.26;100922.84;5075985;28;45928;-77
2023/04/25 11:08:17;;;;;;;;;7.50;7.25;;;;;12.17;63.19;100929.03;5075908;27;46770;-79
2023/04/25 11:10:42;;;;;;;;;7.00;6.00;;;;;12.15;63.21;100929.13;5076030;27;45674;-78
2023/04/25 11:13:08;;;;;;;;;7.75;6.25;;;;;12.20;63.46;100931.44;5075934;28;45666;-81
2023/04/25 11:15:33;;;;;;;;;8.00;7.00;;;;;12.25;62.79;100934.59;5075669;27;46557;-80
2023/04/25 11:17:58;;;;;;;;;7.00;6.25;;;;;12.27;62.77;100932.66;5075853;27;45763;-81
2023/04/25 11:20:28;;;;;;;;;8.25;6.50;;;;;12.25;62.99;100928.50;5076045;27;45699;-79
2023/04/25 11:22:53;;;;;;;;;5.75;4.00;;;;;12.32;62.54;100919.19;5076088;27;45756;-79
2023/04/25 11:25:19;;;;;;;;;7.25;5.50;;;;;12.38;61.95;100940.59;5075760;27;46265;-76
2023/04/25 11:27:58;;;;;;;;;5.25;4.00;;;;;12.41;61.94;100939.56;5075566;28;46006;-79
2023/04/25 11:30:25;;;;;;;;;6.75;6.75;;;;;12.42;61.91;100936.78;5075852;27;45727;-79
2023/04/25 11:32:51;;;;;;;;;8.00;5.25;;;;;12.44;61.75;100926.19;5075760;27;45768;-81
2023/04/25 11:35:18;;;;;;;;;9.50;8.00;;;;;12.51;61.97;100937.94;5075653;27;46302;-78
2023/04/25 11:37:44;;;;;;;;;4.00;3.00;;;;;12.56;61.80;100941.06;5075631;27;45994;-80
2023/04/25 11:40:11;;;;;;;;;7.00;5.25;;;;;12.62;61.91;100940.59;5073890;28;45769;-78
2023/04/25 11:42:44;;;;;;;;;5.25;4.25;;;;;12.67;61.04;100935.84;5073806;28;45710;-79
2023/04/25 11:45:10;;;;;;;;;7.75;4.00;;;;;12.72;61.35;100931.06;5073462;28;45672;-78
2023/04/25 11:47:36;;;;;;;;;3.50;2.50;;;;;12.73;60.81;100934.53;5075241;28;46166;-76
2023/04/25 11:50:04;;;;;;;;;7.25;5.50;;;;;12.73;60.86;100937.16;5074880;27;45586;-79
2023/04/25 11:52:39;;;;;;;;;7.00;4.75;;;;;12.72;60.83;100932.84;5075338;28;45603;-78
2023/04/25 11:55:10;;;;;;;;;9.75;7.00;;;;;12.71;60.83;100929.38;5075167;28;45607;-79
2023/04/25 11:57:37;;;;;;;;;8.50;4.50;;;;;12.70;60.71;100935.59;5075317;27;45948;-77
2023/04/25 12:00:11;;;;;;;;;8.00;7.50;;;;;12.75;60.96;100937.88;5090648;27;45619;-79
2023/04/25 12:02:37;;;;;;;;;8.75;6.00;;;;;12.80;60.32;100938.38;5074891;28;45683;-78
2023/04/25 12:05:07;;;;;;;;;7.00;6.00;;;;;12.88;60.23;100939.47;5074943;27;46470;-79
2023/04/25 12:07:32;;;;;;;;;7.00;5.25;;;;;12.90;59.90;100934.94;5075057;27;47514;-78
2023/04/25 12:09:58;;;;;;;;;6.50;6.50;;;;;12.91;60.42;100939.25;5075235;27;45431;-80
2023/04/25 12:12:31;;;;;;;;;5.25;5.25;;;;;12.92;60.11;100933.03;5075363;27;45847;-78
2023/04/25 12:21:32;;;;;;;;;7.25;6.00;;;;;12.72;60.55;100944.22;5074804;28;45772;-81
2023/04/25 12:24:23;;;;;;;;;7.50;6.75;;;;;12.66;60.94;100946.47;5074990;28;45659;-78
2023/04/25 12:26:52;;;;;;;;;6.75;6.00;;;;;12.60;61.34;100943.34;5074784;27;46185;-79
2023/04/25 12:29:28;;;;;;;;;8.00;7.00;;;;;12.62;61.13;100959.00;5074868;27;46631;-77
2023/04/25 12:31:55;;;;;;;;;8.00;6.25;;;;;12.60;60.74;100959.09;5073149;28;45686;-79
2023/04/25 12:34:21;;;;;;;;;7.50;7.00;;;;;12.58;61.10;100955.75;5074660;27;45601;-79
2023/04/25 12:36:47;;;;;;;;;4.50;4.50;;;;;12.65;60.91;100963.19;5074718;27;46384;-78
2023/04/25 12:39:23;;;;;;;;;8.25;5.25;;;;;12.69;61.28;100962.81;5074575;28;45975;-79
2023/04/25 12:41:49;;;;;;;;;7.25;7.00;;;;;12.74;60.47;100962.50;5074734;27;45591;-78
2023/04/25 12:44:15;;;;;;;;;8.00;8.00;;;;;12.78;60.75;100961.31;5074989;27;45634;-78
2023/04/25 12:46:41;;;;;;;;;7.50;7.25;;;;;12.87;60.63;100958.84;5074736;27;45642;-77